sensor_id;sensor_type;location;lat;lon;timestamp;P1;durP1;ratioP1;P2;durP2;ratioP2
73321;SDS011;61549;37.044;22.128;2022-12-07T00:01:30;8.65;;;3.90;;
73321;SDS011;61549;37.044;22.128;2022-12-07T00:04:00;8.07;;;3.85;;
73321;SDS011;61549;37.044;22.128;2022-12-07T00:06:31;10.30;;;4.00;;
73321;SDS011;61549;37.044;22.128;2022-12-07T00:09:02;9.15;;;4.13;;
73321;SDS011;61549;37.044;22.128;2022-12-07T00:11:29;12.98;;;4.75;;
73321;SDS011;61549;37.044;22.128;2022-12-07T00:13:56;9.55;;;4.25;;
73321;SDS011;61549;37.044;22.128;2022-12-07T00:16:24;10.50;;;5.00;;
73321;SDS011;61549;37.044;22.128;2022-12-07T00:18:52;10.38;;;4.95;;
73321;SDS011;61549;37.044;22.128;2022-12-07T00:21:20;9.18;;;4.72;;
73321;SDS011;61549;37.044;22.128;2022-12-07T00:23:48;12.43;;;6.90;;
73321;SDS011;61549;37.044;22.128;2022-12-07T00:28:51;9.52;;;5.13;;
73321;SDS011;61549;37.044;22.128;2022-12-07T00:31:20;9.40;;;4.38;;
73321;SDS011;61549;37.044;22.128;2022-12-07T00:33:48;11.18;;;3.88;;
73321;SDS011;61549;37.044;22.128;2022-12-07T00:36:17;8.35;;;3.90;;
73321;SDS011;61549;37.044;22.128;2022-12-07T00:38:54;9.63;;;4.00;;
73321;SDS011;61549;37.044;22.128;2022-12-07T00:41:21;9.68;;;3.80;;
73321;SDS011;61549;37.044;22.128;2022-12-07T00:43:48;7.97;;;3.83;;
73321;SDS011;61549;37.044;22.128;2022-12-07T00:46:15;7.63;;;3.72;;
73321;SDS011;61549;37.044;22.128;2022-12-07T00:48:42;7.40;;;3.65;;
73321;SDS011;61549;37.044;22.128;2022-12-07T00:51:09;6.28;;;3.15;;
73321;SDS011;61549;37.044;22.128;2022-12-07T00:53:37;7.57;;;3.35;;
73321;SDS011;61549;37.044;22.128;2022-12-07T00:58:35;7.07;;;3.20;;
73321;SDS011;61549;37.044;22.128;2022-12-07T01:01:01;7.15;;;3.15;;
73321;SDS011;61549;37.044;22.128;2022-12-07T01:03:29;9.18;;;3.80;;
73321;SDS011;61549;37.044;22.128;2022-12-07T01:05:56;7.45;;;3.22;;
73321;SDS011;61549;37.044;22.128;2022-12-07T01:08:23;7.10;;;3.28;;
73321;SDS011;61549;37.044;22.128;2022-12-07T01:10:57;6.28;;;3.58;;
73321;SDS011;61549;37.044;22.128;2022-12-07T01:13:24;7.73;;;3.33;;
73321;SDS011;61549;37.044;22.128;2022-12-07T01:15:50;9.88;;;3.20;;
73321;SDS011;61549;37.044;22.128;2022-12-07T01:18:16;8.02;;;3.15;;
73321;SDS011;61549;37.044;22.128;2022-12-07T01:20:42;7.30;;;3.53;;
73321;SDS011;61549;37.044;22.128;2022-12-07T01:23:08;6.38;;;3.25;;
73321;SDS011;61549;37.044;22.128;2022-12-07T01:25:34;7.97;;;3.15;;
73321;SDS011;61549;37.044;22.128;2022-12-07T01:27:59;6.50;;;3.10;;
73321;SDS011;61549;37.044;22.128;2022-12-07T01:30:25;10.43;;;4.00;;
73321;SDS011;61549;37.044;22.128;2022-12-07T01:32:51;9.73;;;3.70;;
73321;SDS011;61549;37.044;22.128;2022-12-07T01:35:17;7.95;;;3.25;;
73321;SDS011;61549;37.044;22.128;2022-12-07T01:37:43;8.82;;;3.45;;
73321;SDS011;61549;37.044;22.128;2022-12-07T01:40:09;7.47;;;3.33;;
73321;SDS011;61549;37.044;22.128;2022-12-07T01:42:35;9.85;;;3.55;;
73321;SDS011;61549;37.044;22.128;2022-12-07T01:48:05;7.00;;;2.90;;
73321;SDS011;61549;37.044;22.128;2022-12-07T01:50:33;8.02;;;2.92;;
73321;SDS011;61549;37.044;22.128;2022-12-07T01:53:00;7.68;;;2.88;;
73321;SDS011;61549;37.044;22.128;2022-12-07T01:55:31;6.47;;;2.80;;
73321;SDS011;61549;37.044;22.128;2022-12-07T01:57:59;7.82;;;2.95;;
73321;SDS011;61549;37.044;22.128;2022-12-07T02:00:25;7.78;;;2.90;;
73321;SDS011;61549;37.044;22.128;2022-12-07T02:02:52;7.95;;;2.80;;
73321;SDS011;61549;37.044;22.128;2022-12-07T02:05:28;4.63;;;2.88;;
73321;SDS011;61549;37.044;22.128;2022-12-07T02:07:55;9.35;;;3.00;;
73321;SDS011;61549;37.044;22.128;2022-12-07T02:10:23;6.60;;;3.17;;
73321;SDS011;61549;37.044;22.128;2022-12-07T02:12:57;7.03;;;3.03;;
73321;SDS011;61549;37.044;22.128;2022-12-07T02:15:38;6.85;;;2.90;;
73321;SDS011;61549;37.044;22.128;2022-12-07T02:21:12;8.55;;;2.70;;
73321;SDS011;61549;37.044;22.128;2022-12-07T02:26:23;5.30;;;2.70;;
73321;SDS011;61549;37.044;22.128;2022-12-07T02:29:10;7.47;;;3.00;;
73321;SDS011;61549;37.044;22.128;2022-12-07T02:34:42;7.10;;;2.83;;
73321;SDS011;61549;37.044;22.128;2022-12-07T02:40:35;6.60;;;2.78;;
73321;SDS011;61549;37.044;22.128;2022-12-07T02:46:01;6.75;;;2.85;;
73321;SDS011;61549;37.044;22.128;2022-12-07T02:48:33;9.20;;;3.45;;
73321;SDS011;61549;37.044;22.128;2022-12-07T02:51:00;8.88;;;3.42;;
73321;SDS011;61549;37.044;22.128;2022-12-07T02:53:30;6.45;;;2.88;;
73321;SDS011;61549;37.044;22.128;2022-12-07T03:07:23;11.57;;;4.03;;
73321;SDS011;61549;37.044;22.128;2022-12-07T03:10:09;6.93;;;3.75;;
73321;SDS011;61549;37.044;22.128;2022-12-07T03:15:26;9.02;;;4.20;;
73321;SDS011;61549;37.044;22.128;2022-12-07T03:18:05;11.45;;;4.90;;
73321;SDS011;61549;37.044;22.128;2022-12-07T03:20:34;9.93;;;4.43;;
73321;SDS011;61549;37.044;22.128;2022-12-07T03:23:03;8.27;;;3.90;;
73321;SDS011;61549;37.044;22.128;2022-12-07T03:25:32;8.23;;;3.00;;
73321;SDS011;61549;37.044;22.128;2022-12-07T03:28:04;7.13;;;3.00;;
73321;SDS011;61549;37.044;22.128;2022-12-07T03:33:27;5.28;;;3.03;;
73321;SDS011;61549;37.044;22.128;2022-12-07T03:36:02;7.90;;;2.85;;
73321;SDS011;61549;37.044;22.128;2022-12-07T03:38:40;7.72;;;2.90;;
73321;SDS011;61549;37.044;22.128;2022-12-07T03:41:34;8.30;;;3.42;;
73321;SDS011;61549;37.044;22.128;2022-12-07T03:44:00;4.93;;;2.80;;
73321;SDS011;61549;37.044;22.128;2022-12-07T03:51:54;4.80;;;2.47;;
73321;SDS011;61549;37.044;22.128;2022-12-07T03:54:41;5.82;;;2.63;;
73321;SDS011;61549;37.044;22.128;2022-12-07T03:57:17;7.70;;;2.65;;
73321;SDS011;61549;37.044;22.128;2022-12-07T03:59:44;5.70;;;2.75;;
73321;SDS011;61549;37.044;22.128;2022-12-07T04:02:11;5.70;;;2.67;;
73321;SDS011;61549;37.044;22.128;2022-12-07T04:04:40;7.05;;;2.80;;
73321;SDS011;61549;37.044;22.128;2022-12-07T04:07:09;5.75;;;2.90;;
73321;SDS011;61549;37.044;22.128;2022-12-07T04:09:35;8.80;;;3.28;;
73321;SDS011;61549;37.044;22.128;2022-12-07T04:12:01;6.97;;;3.15;;
73321;SDS011;61549;37.044;22.128;2022-12-07T04:14:27;5.55;;;2.95;;
73321;SDS011;61549;37.044;22.128;2022-12-07T04:16:54;9.82;;;3.25;;
73321;SDS011;61549;37.044;22.128;2022-12-07T04:19:28;8.15;;;3.30;;
73321;SDS011;61549;37.044;22.128;2022-12-07T04:21:56;6.50;;;3.28;;
73321;SDS011;61549;37.044;22.128;2022-12-07T04:24:23;7.43;;;2.92;;
73321;SDS011;61549;37.044;22.128;2022-12-07T04:26:50;7.65;;;2.90;;
73321;SDS011;61549;37.044;22.128;2022-12-07T04:29:18;7.18;;;2.90;;
73321;SDS011;61549;37.044;22.128;2022-12-07T04:31:44;8.68;;;2.95;;
73321;SDS011;61549;37.044;22.128;2022-12-07T04:34:10;6.57;;;2.83;;
73321;SDS011;61549;37.044;22.128;2022-12-07T04:36:37;8.32;;;2.80;;
73321;SDS011;61549;37.044;22.128;2022-12-07T04:39:04;6.20;;;2.65;;
73321;SDS011;61549;37.044;22.128;2022-12-07T04:41:32;5.90;;;3.20;;
73321;SDS011;61549;37.044;22.128;2022-12-07T04:43:59;8.43;;;3.35;;
73321;SDS011;61549;37.044;22.128;2022-12-07T04:46:27;7.63;;;4.07;;
73321;SDS011;61549;37.044;22.128;2022-12-07T04:48:55;8.27;;;3.70;;
73321;SDS011;61549;37.044;22.128;2022-12-07T04:51:22;7.05;;;3.25;;
73321;SDS011;61549;37.044;22.128;2022-12-07T04:56:20;6.20;;;2.55;;
73321;SDS011;61549;37.044;22.128;2022-12-07T04:58:47;7.95;;;2.75;;
73321;SDS011;61549;37.044;22.128;2022-12-07T05:01:14;8.32;;;2.50;;
73321;SDS011;61549;37.044;22.128;2022-12-07T05:03:41;4.25;;;2.33;;
73321;SDS011;61549;37.044;22.128;2022-12-07T05:06:07;6.15;;;2.33;;
73321;SDS011;61549;37.044;22.128;2022-12-07T05:08:34;7.25;;;2.40;;
73321;SDS011;61549;37.044;22.128;2022-12-07T05:11:00;5.95;;;2.45;;
73321;SDS011;61549;37.044;22.128;2022-12-07T05:13:27;8.20;;;2.50;;
73321;SDS011;61549;37.044;22.128;2022-12-07T05:15:53;8.18;;;2.92;;
73321;SDS011;61549;37.044;22.128;2022-12-07T05:18:19;7.97;;;2.95;;
73321;SDS011;61549;37.044;22.128;2022-12-07T05:20:47;12.10;;;2.90;;
73321;SDS011;61549;37.044;22.128;2022-12-07T05:23:12;7.45;;;2.63;;
73321;SDS011;61549;37.044;22.128;2022-12-07T05:25:38;8.05;;;2.80;;
73321;SDS011;61549;37.044;22.128;2022-12-07T05:28:05;7.93;;;2.50;;
73321;SDS011;61549;37.044;22.128;2022-12-07T05:30:31;5.75;;;2.55;;
73321;SDS011;61549;37.044;22.128;2022-12-07T05:33:01;8.63;;;3.10;;
73321;SDS011;61549;37.044;22.128;2022-12-07T05:35:27;10.93;;;6.70;;
73321;SDS011;61549;37.044;22.128;2022-12-07T05:37:54;43.17;;;22.45;;
73321;SDS011;61549;37.044;22.128;2022-12-07T05:40:20;13.32;;;6.60;;
73321;SDS011;61549;37.044;22.128;2022-12-07T05:42:46;15.23;;;8.98;;
73321;SDS011;61549;37.044;22.128;2022-12-07T05:45:12;19.35;;;8.98;;
73321;SDS011;61549;37.044;22.128;2022-12-07T05:47:38;20.95;;;11.07;;
73321;SDS011;61549;37.044;22.128;2022-12-07T05:50:05;19.13;;;10.52;;
73321;SDS011;61549;37.044;22.128;2022-12-07T05:52:32;20.60;;;10.20;;
73321;SDS011;61549;37.044;22.128;2022-12-07T05:54:58;17.50;;;7.85;;
73321;SDS011;61549;37.044;22.128;2022-12-07T05:57:25;15.98;;;7.78;;
73321;SDS011;61549;37.044;22.128;2022-12-07T05:59:51;13.30;;;7.47;;
73321;SDS011;61549;37.044;22.128;2022-12-07T06:02:16;11.55;;;5.53;;
73321;SDS011;61549;37.044;22.128;2022-12-07T06:04:43;11.32;;;4.90;;
73321;SDS011;61549;37.044;22.128;2022-12-07T06:07:13;7.82;;;4.70;;
73321;SDS011;61549;37.044;22.128;2022-12-07T06:09:41;9.07;;;4.07;;
73321;SDS011;61549;37.044;22.128;2022-12-07T06:12:08;10.75;;;4.28;;
73321;SDS011;61549;37.044;22.128;2022-12-07T06:14:54;11.27;;;3.85;;
73321;SDS011;61549;37.044;22.128;2022-12-07T06:17:19;9.27;;;3.67;;
73321;SDS011;61549;37.044;22.128;2022-12-07T06:19:45;10.52;;;3.08;;
73321;SDS011;61549;37.044;22.128;2022-12-07T06:22:11;10.85;;;3.88;;
73321;SDS011;61549;37.044;22.128;2022-12-07T06:24:38;9.25;;;3.65;;
73321;SDS011;61549;37.044;22.128;2022-12-07T06:27:05;8.73;;;3.35;;
73321;SDS011;61549;37.044;22.128;2022-12-07T06:29:31;7.32;;;3.00;;
73321;SDS011;61549;37.044;22.128;2022-12-07T06:31:57;9.90;;;3.20;;
73321;SDS011;61549;37.044;22.128;2022-12-07T06:34:24;11.25;;;3.28;;
73321;SDS011;61549;37.044;22.128;2022-12-07T06:36:50;7.30;;;3.33;;
73321;SDS011;61549;37.044;22.128;2022-12-07T06:39:19;7.28;;;3.03;;
73321;SDS011;61549;37.044;22.128;2022-12-07T06:41:45;6.88;;;3.20;;
73321;SDS011;61549;37.044;22.128;2022-12-07T06:44:11;10.68;;;3.10;;
73321;SDS011;61549;37.044;22.128;2022-12-07T06:46:37;11.02;;;3.20;;
73321;SDS011;61549;37.044;22.128;2022-12-07T06:49:09;10.10;;;3.30;;
73321;SDS011;61549;37.044;22.128;2022-12-07T06:51:36;8.65;;;3.60;;
73321;SDS011;61549;37.044;22.128;2022-12-07T06:54:06;7.47;;;3.50;;
73321;SDS011;61549;37.044;22.128;2022-12-07T06:56:32;10.65;;;4.10;;
73321;SDS011;61549;37.044;22.128;2022-12-07T06:58:58;6.28;;;3.50;;
73321;SDS011;61549;37.044;22.128;2022-12-07T07:01:24;8.10;;;3.25;;
73321;SDS011;61549;37.044;22.128;2022-12-07T07:03:50;9.88;;;3.45;;
73321;SDS011;61549;37.044;22.128;2022-12-07T07:06:16;6.55;;;3.13;;
73321;SDS011;61549;37.044;22.128;2022-12-07T07:08:42;8.65;;;3.00;;
73321;SDS011;61549;37.044;22.128;2022-12-07T07:11:14;8.88;;;3.63;;
73321;SDS011;61549;37.044;22.128;2022-12-07T07:13:39;8.82;;;3.33;;
73321;SDS011;61549;37.044;22.128;2022-12-07T07:16:05;6.70;;;3.22;;
73321;SDS011;61549;37.044;22.128;2022-12-07T07:18:32;7.03;;;3.03;;
73321;SDS011;61549;37.044;22.128;2022-12-07T07:20:58;8.18;;;2.97;;
73321;SDS011;61549;37.044;22.128;2022-12-07T07:23:24;7.60;;;3.00;;
73321;SDS011;61549;37.044;22.128;2022-12-07T07:25:50;7.80;;;2.97;;
73321;SDS011;61549;37.044;22.128;2022-12-07T07:28:16;7.63;;;2.60;;
73321;SDS011;61549;37.044;22.128;2022-12-07T07:30:42;6.57;;;2.90;;
73321;SDS011;61549;37.044;22.128;2022-12-07T07:33:08;7.60;;;2.80;;
73321;SDS011;61549;37.044;22.128;2022-12-07T07:35:35;7.65;;;3.20;;
73321;SDS011;61549;37.044;22.128;2022-12-07T07:38:01;6.50;;;3.20;;
73321;SDS011;61549;37.044;22.128;2022-12-07T07:40:27;9.23;;;3.17;;
73321;SDS011;61549;37.044;22.128;2022-12-07T07:42:54;7.15;;;2.83;;
73321;SDS011;61549;37.044;22.128;2022-12-07T07:45:21;13.00;;;5.97;;
73321;SDS011;61549;37.044;22.128;2022-12-07T07:47:48;23.85;;;13.77;;
73321;SDS011;61549;37.044;22.128;2022-12-07T07:50:15;22.77;;;13.38;;
73321;SDS011;61549;37.044;22.128;2022-12-07T07:52:41;24.02;;;15.57;;
73321;SDS011;61549;37.044;22.128;2022-12-07T07:55:08;28.67;;;17.30;;
73321;SDS011;61549;37.044;22.128;2022-12-07T07:57:35;27.00;;;18.98;;
73321;SDS011;61549;37.044;22.128;2022-12-07T08:00:03;24.40;;;18.60;;
73321;SDS011;61549;37.044;22.128;2022-12-07T08:02:31;24.08;;;17.15;;
73321;SDS011;61549;37.044;22.128;2022-12-07T08:04:57;22.90;;;15.48;;
73321;SDS011;61549;37.044;22.128;2022-12-07T08:07:23;17.88;;;10.88;;
73321;SDS011;61549;37.044;22.128;2022-12-07T08:09:53;13.80;;;6.30;;
73321;SDS011;61549;37.044;22.128;2022-12-07T08:12:19;9.10;;;3.58;;
73321;SDS011;61549;37.044;22.128;2022-12-07T08:14:45;8.43;;;3.00;;
73321;SDS011;61549;37.044;22.128;2022-12-07T08:17:11;7.63;;;3.05;;
73321;SDS011;61549;37.044;22.128;2022-12-07T08:19:37;9.32;;;3.17;;
73321;SDS011;61549;37.044;22.128;2022-12-07T08:22:03;8.43;;;2.75;;
73321;SDS011;61549;37.044;22.128;2022-12-07T08:24:29;11.60;;;4.88;;
73321;SDS011;61549;37.044;22.128;2022-12-07T08:26:59;11.48;;;5.13;;
73321;SDS011;61549;37.044;22.128;2022-12-07T08:29:25;10.57;;;6.05;;
73321;SDS011;61549;37.044;22.128;2022-12-07T08:31:50;15.10;;;7.68;;
73321;SDS011;61549;37.044;22.128;2022-12-07T08:34:16;13.10;;;8.40;;
73321;SDS011;61549;37.044;22.128;2022-12-07T08:36:42;19.00;;;10.40;;
73321;SDS011;61549;37.044;22.128;2022-12-07T08:39:08;17.52;;;11.38;;
73321;SDS011;61549;37.044;22.128;2022-12-07T08:41:36;13.98;;;6.60;;
73321;SDS011;61549;37.044;22.128;2022-12-07T08:44:02;11.05;;;5.78;;
73321;SDS011;61549;37.044;22.128;2022-12-07T08:46:35;13.65;;;5.32;;
73321;SDS011;61549;37.044;22.128;2022-12-07T08:49:24;14.13;;;5.85;;
73321;SDS011;61549;37.044;22.128;2022-12-07T08:51:55;14.43;;;7.47;;
73321;SDS011;61549;37.044;22.128;2022-12-07T08:54:23;12.80;;;7.47;;
73321;SDS011;61549;37.044;22.128;2022-12-07T08:56:49;12.20;;;7.68;;
73321;SDS011;61549;37.044;22.128;2022-12-07T08:59:17;17.17;;;8.00;;
73321;SDS011;61549;37.044;22.128;2022-12-07T09:01:44;22.27;;;9.10;;
73321;SDS011;61549;37.044;22.128;2022-12-07T09:04:10;18.20;;;9.70;;
73321;SDS011;61549;37.044;22.128;2022-12-07T09:06:37;16.85;;;10.27;;
73321;SDS011;61549;37.044;22.128;2022-12-07T09:09:06;16.13;;;9.10;;
73321;SDS011;61549;37.044;22.128;2022-12-07T09:11:34;14.15;;;7.60;;
73321;SDS011;61549;37.044;22.128;2022-12-07T09:14:00;14.15;;;7.22;;
73321;SDS011;61549;37.044;22.128;2022-12-07T09:16:26;15.20;;;8.80;;
73321;SDS011;61549;37.044;22.128;2022-12-07T09:18:52;15.85;;;6.70;;
73321;SDS011;61549;37.044;22.128;2022-12-07T09:21:20;9.88;;;4.57;;
73321;SDS011;61549;37.044;22.128;2022-12-07T09:23:46;9.02;;;4.65;;
73321;SDS011;61549;37.044;22.128;2022-12-07T09:26:12;16.98;;;6.40;;
73321;SDS011;61549;37.044;22.128;2022-12-07T09:28:38;12.25;;;7.95;;
73321;SDS011;61549;37.044;22.128;2022-12-07T09:31:04;13.68;;;7.55;;
73321;SDS011;61549;37.044;22.128;2022-12-07T09:33:31;11.65;;;7.43;;
73321;SDS011;61549;37.044;22.128;2022-12-07T09:35:57;12.18;;;5.70;;
73321;SDS011;61549;37.044;22.128;2022-12-07T09:38:23;12.13;;;6.30;;
73321;SDS011;61549;37.044;22.128;2022-12-07T09:40:51;17.73;;;8.20;;
73321;SDS011;61549;37.044;22.128;2022-12-07T09:43:21;16.58;;;6.70;;
73321;SDS011;61549;37.044;22.128;2022-12-07T09:45:50;15.05;;;6.22;;
73321;SDS011;61549;37.044;22.128;2022-12-07T09:48:20;10.38;;;6.13;;
73321;SDS011;61549;37.044;22.128;2022-12-07T09:50:54;20.38;;;11.57;;
73321;SDS011;61549;37.044;22.128;2022-12-07T09:53:32;17.60;;;9.15;;
73321;SDS011;61549;37.044;22.128;2022-12-07T09:58:29;11.57;;;6.53;;
73321;SDS011;61549;37.044;22.128;2022-12-07T10:00:57;11.07;;;5.53;;
73321;SDS011;61549;37.044;22.128;2022-12-07T10:06:35;12.88;;;6.97;;
73321;SDS011;61549;37.044;22.128;2022-12-07T10:09:01;21.00;;;10.20;;
73321;SDS011;61549;37.044;22.128;2022-12-07T10:11:27;18.67;;;11.65;;
73321;SDS011;61549;37.044;22.128;2022-12-07T10:13:53;14.80;;;8.35;;
73321;SDS011;61549;37.044;22.128;2022-12-07T10:24:37;24.20;;;13.93;;
73321;SDS011;61549;37.044;22.128;2022-12-07T10:27:30;33.38;;;20.67;;
73321;SDS011;61549;37.044;22.128;2022-12-07T10:29:59;29.17;;;19.02;;
73321;SDS011;61549;37.044;22.128;2022-12-07T10:35:18;28.30;;;19.48;;
73321;SDS011;61549;37.044;22.128;2022-12-07T10:37:57;28.52;;;19.10;;
73321;SDS011;61549;37.044;22.128;2022-12-07T10:43:00;35.13;;;20.95;;
73321;SDS011;61549;37.044;22.128;2022-12-07T10:49:02;33.63;;;22.35;;
73321;SDS011;61549;37.044;22.128;2022-12-07T11:02:53;33.13;;;21.88;;
73321;SDS011;61549;37.044;22.128;2022-12-07T11:10:55;31.23;;;20.00;;
73321;SDS011;61549;37.044;22.128;2022-12-07T11:13:59;32.63;;;20.70;;
73321;SDS011;61549;37.044;22.128;2022-12-07T11:21:43;18.35;;;13.27;;
73321;SDS011;61549;37.044;22.128;2022-12-07T11:27:44;17.38;;;12.88;;
73321;SDS011;61549;37.044;22.128;2022-12-07T11:30:26;20.50;;;13.60;;
73321;SDS011;61549;37.044;22.128;2022-12-07T11:34:00;14.93;;;8.07;;
73321;SDS011;61549;37.044;22.128;2022-12-07T11:42:01;12.10;;;5.13;;
73321;SDS011;61549;37.044;22.128;2022-12-07T11:53:21;10.55;;;4.65;;
73321;SDS011;61549;37.044;22.128;2022-12-07T11:55:52;12.65;;;4.50;;
73321;SDS011;61549;37.044;22.128;2022-12-07T12:01:29;10.30;;;6.57;;
73321;SDS011;61549;37.044;22.128;2022-12-07T12:06:36;18.67;;;12.63;;
73321;SDS011;61549;37.044;22.128;2022-12-07T12:14:40;15.68;;;9.20;;
73321;SDS011;61549;37.044;22.128;2022-12-07T12:20:18;15.93;;;8.82;;
73321;SDS011;61549;37.044;22.128;2022-12-07T12:22:52;23.00;;;15.02;;
73321;SDS011;61549;37.044;22.128;2022-12-07T12:28:05;15.50;;;7.20;;
73321;SDS011;61549;37.044;22.128;2022-12-07T12:30:43;14.80;;;6.72;;
73321;SDS011;61549;37.044;22.128;2022-12-07T12:33:27;12.27;;;8.07;;
73321;SDS011;61549;37.044;22.128;2022-12-07T12:38:51;26.52;;;17.30;;
73321;SDS011;61549;37.044;22.128;2022-12-07T12:54:39;39.60;;;26.88;;
73321;SDS011;61549;37.044;22.128;2022-12-07T12:57:33;28.33;;;18.73;;
73321;SDS011;61549;37.044;22.128;2022-12-07T13:00:22;28.52;;;20.77;;
73321;SDS011;61549;37.044;22.128;2022-12-07T13:02:54;36.55;;;24.40;;
73321;SDS011;61549;37.044;22.128;2022-12-07T13:05:30;35.28;;;25.13;;
73321;SDS011;61549;37.044;22.128;2022-12-07T13:12:55;33.13;;;22.67;;
73321;SDS011;61549;37.044;22.128;2022-12-07T13:18:48;26.52;;;15.90;;
73321;SDS011;61549;37.044;22.128;2022-12-07T13:26:22;20.20;;;12.65;;
73321;SDS011;61549;37.044;22.128;2022-12-07T13:29:16;18.45;;;13.10;;
73321;SDS011;61549;37.044;22.128;2022-12-07T13:31:50;24.92;;;11.90;;
73321;SDS011;61549;37.044;22.128;2022-12-07T13:34:28;17.38;;;12.07;;
73321;SDS011;61549;37.044;22.128;2022-12-07T13:37:04;19.58;;;11.70;;
73321;SDS011;61549;37.044;22.128;2022-12-07T13:39:49;22.83;;;14.57;;
73321;SDS011;61549;37.044;22.128;2022-12-07T13:44:51;32.58;;;22.40;;
73321;SDS011;61549;37.044;22.128;2022-12-07T13:47:41;31.25;;;21.50;;
73321;SDS011;61549;37.044;22.128;2022-12-07T13:50:25;33.90;;;22.25;;
73321;SDS011;61549;37.044;22.128;2022-12-07T13:52:56;39.83;;;27.75;;
73321;SDS011;61549;37.044;22.128;2022-12-07T13:55:23;39.92;;;28.85;;
73321;SDS011;61549;37.044;22.128;2022-12-07T13:57:50;44.30;;;31.50;;
73321;SDS011;61549;37.044;22.128;2022-12-07T14:00:20;43.83;;;30.55;;
73321;SDS011;61549;37.044;22.128;2022-12-07T14:02:58;42.65;;;29.60;;
73321;SDS011;61549;37.044;22.128;2022-12-07T14:05:27;50.47;;;36.28;;
73321;SDS011;61549;37.044;22.128;2022-12-07T14:07:57;51.95;;;35.13;;
73321;SDS011;61549;37.044;22.128;2022-12-07T14:10:27;54.92;;;36.03;;
73321;SDS011;61549;37.044;22.128;2022-12-07T14:12:55;51.08;;;34.88;;
73321;SDS011;61549;37.044;22.128;2022-12-07T14:15:23;54.88;;;38.10;;
73321;SDS011;61549;37.044;22.128;2022-12-07T14:17:53;59.83;;;40.83;;
73321;SDS011;61549;37.044;22.128;2022-12-07T14:20:37;59.72;;;42.30;;
73321;SDS011;61549;37.044;22.128;2022-12-07T14:23:04;88.53;;;55.47;;
73321;SDS011;61549;37.044;22.128;2022-12-07T14:28:26;83.15;;;54.47;;
73321;SDS011;61549;37.044;22.128;2022-12-07T14:30:53;77.70;;;49.22;;
73321;SDS011;61549;37.044;22.128;2022-12-07T14:33:19;66.50;;;46.08;;
73321;SDS011;61549;37.044;22.128;2022-12-07T14:35:46;72.13;;;45.90;;
73321;SDS011;61549;37.044;22.128;2022-12-07T14:38:12;73.47;;;48.55;;
73321;SDS011;61549;37.044;22.128;2022-12-07T14:40:37;70.43;;;46.47;;
73321;SDS011;61549;37.044;22.128;2022-12-07T14:43:13;66.25;;;44.63;;
73321;SDS011;61549;37.044;22.128;2022-12-07T14:45:41;55.70;;;37.83;;
73321;SDS011;61549;37.044;22.128;2022-12-07T14:48:07;53.10;;;36.28;;
73321;SDS011;61549;37.044;22.128;2022-12-07T14:50:38;49.22;;;32.38;;
73321;SDS011;61549;37.044;22.128;2022-12-07T14:53:15;52.35;;;33.33;;
73321;SDS011;61549;37.044;22.128;2022-12-07T14:55:43;48.17;;;32.72;;
73321;SDS011;61549;37.044;22.128;2022-12-07T14:58:12;40.25;;;26.05;;
73321;SDS011;61549;37.044;22.128;2022-12-07T15:00:39;37.88;;;26.75;;
73321;SDS011;61549;37.044;22.128;2022-12-07T15:03:05;38.30;;;24.80;;
73321;SDS011;61549;37.044;22.128;2022-12-07T15:05:36;38.35;;;23.73;;
73321;SDS011;61549;37.044;22.128;2022-12-07T15:08:06;34.53;;;24.73;;
73321;SDS011;61549;37.044;22.128;2022-12-07T15:10:52;34.42;;;24.52;;
73321;SDS011;61549;37.044;22.128;2022-12-07T15:13:18;41.58;;;26.08;;
73321;SDS011;61549;37.044;22.128;2022-12-07T15:16:04;55.95;;;36.50;;
73321;SDS011;61549;37.044;22.128;2022-12-07T15:18:35;46.05;;;31.10;;
73321;SDS011;61549;37.044;22.128;2022-12-07T15:21:03;40.55;;;27.95;;
73321;SDS011;61549;37.044;22.128;2022-12-07T15:23:29;35.75;;;21.40;;
73321;SDS011;61549;37.044;22.128;2022-12-07T15:26:01;26.73;;;17.98;;
73321;SDS011;61549;37.044;22.128;2022-12-07T15:31:50;25.20;;;14.00;;
73321;SDS011;61549;37.044;22.128;2022-12-07T15:34:16;24.58;;;16.40;;
73321;SDS011;61549;37.044;22.128;2022-12-07T15:36:42;26.02;;;22.75;;
73321;SDS011;61549;37.044;22.128;2022-12-07T15:39:08;20.20;;;14.95;;
73321;SDS011;61549;37.044;22.128;2022-12-07T15:41:35;18.80;;;11.15;;
73321;SDS011;61549;37.044;22.128;2022-12-07T15:44:01;15.43;;;10.38;;
73321;SDS011;61549;37.044;22.128;2022-12-07T15:46:52;23.15;;;15.60;;
73321;SDS011;61549;37.044;22.128;2022-12-07T15:49:18;26.35;;;16.40;;
73321;SDS011;61549;37.044;22.128;2022-12-07T15:51:44;18.70;;;12.38;;
73321;SDS011;61549;37.044;22.128;2022-12-07T15:54:24;19.60;;;11.18;;
73321;SDS011;61549;37.044;22.128;2022-12-07T15:56:52;19.05;;;11.05;;
73321;SDS011;61549;37.044;22.128;2022-12-07T15:59:19;18.25;;;11.80;;
73321;SDS011;61549;37.044;22.128;2022-12-07T16:01:45;17.02;;;12.80;;
73321;SDS011;61549;37.044;22.128;2022-12-07T16:04:10;29.05;;;20.33;;
73321;SDS011;61549;37.044;22.128;2022-12-07T16:06:37;22.33;;;15.40;;
73321;SDS011;61549;37.044;22.128;2022-12-07T16:09:03;23.10;;;16.35;;
73321;SDS011;61549;37.044;22.128;2022-12-07T16:11:29;23.13;;;14.80;;
73321;SDS011;61549;37.044;22.128;2022-12-07T16:13:55;22.20;;;15.48;;
73321;SDS011;61549;37.044;22.128;2022-12-07T16:16:21;20.33;;;12.32;;
73321;SDS011;61549;37.044;22.128;2022-12-07T16:18:47;17.25;;;10.90;;
73321;SDS011;61549;37.044;22.128;2022-12-07T16:21:15;20.80;;;11.30;;
73321;SDS011;61549;37.044;22.128;2022-12-07T16:23:42;19.08;;;12.15;;
73321;SDS011;61549;37.044;22.128;2022-12-07T16:26:13;16.80;;;11.20;;
73321;SDS011;61549;37.044;22.128;2022-12-07T16:28:41;16.48;;;12.23;;
73321;SDS011;61549;37.044;22.128;2022-12-07T16:31:09;20.95;;;11.68;;
73321;SDS011;61549;37.044;22.128;2022-12-07T16:33:40;42.08;;;27.00;;
73321;SDS011;61549;37.044;22.128;2022-12-07T16:36:08;106.07;;;68.78;;
73321;SDS011;61549;37.044;22.128;2022-12-07T16:38:35;45.88;;;29.55;;
73321;SDS011;61549;37.044;22.128;2022-12-07T16:41:03;27.00;;;16.50;;
73321;SDS011;61549;37.044;22.128;2022-12-07T16:43:30;18.60;;;11.80;;
73321;SDS011;61549;37.044;22.128;2022-12-07T16:45:56;17.45;;;11.32;;
73321;SDS011;61549;37.044;22.128;2022-12-07T16:48:22;19.90;;;10.75;;
73321;SDS011;61549;37.044;22.128;2022-12-07T16:50:48;14.13;;;9.68;;
73321;SDS011;61549;37.044;22.128;2022-12-07T16:53:14;15.38;;;7.68;;
73321;SDS011;61549;37.044;22.128;2022-12-07T16:55:41;14.65;;;9.60;;
73321;SDS011;61549;37.044;22.128;2022-12-07T16:58:09;23.65;;;14.40;;
73321;SDS011;61549;37.044;22.128;2022-12-07T17:00:36;17.58;;;10.98;;
73321;SDS011;61549;37.044;22.128;2022-12-07T17:03:03;17.50;;;10.18;;
73321;SDS011;61549;37.044;22.128;2022-12-07T17:05:29;16.85;;;9.10;;
73321;SDS011;61549;37.044;22.128;2022-12-07T17:07:55;18.05;;;12.70;;
73321;SDS011;61549;37.044;22.128;2022-12-07T17:10:22;18.35;;;11.18;;
73321;SDS011;61549;37.044;22.128;2022-12-07T17:12:49;30.15;;;19.73;;
73321;SDS011;61549;37.044;22.128;2022-12-07T17:15:15;17.85;;;12.00;;
73321;SDS011;61549;37.044;22.128;2022-12-07T17:17:42;17.40;;;10.60;;
73321;SDS011;61549;37.044;22.128;2022-12-07T17:20:23;14.68;;;8.85;;